Time;durP1;ratioP1;P1;durP2;ratioP2;P2;SDS_P1;SDS_P2;PMS_P1;PMS_P2;Temp;Humidity;BMP_temperature;BMP_pressure;BME280_temperature;BME280_humidity;BME280_pressure;Samples;Min_cycle;Max_cycle;Signal;HPM_P1;HPM_P2
2023/12/11 00:02:25;;;;;;;3.28;1.50;;;;;;;;;;5054796;28;20053;-26
2023/12/11 00:04:52;;;;;;;4.97;1.60;;;18.80;70.30;;;;;;5054725;28;20059;-24
2023/12/11 00:07:19;;;;;;;3.80;1.73;;;;;;;;;;5054319;28;20502;-29
2023/12/11 00:09:47;;;;;;;3.50;1.67;;;17.80;58.10;;;;;;5055242;28;20056;-25
2023/12/11 00:12:14;;;;;;;4.20;1.80;;;18.80;70.60;;;;;;5074068;28;20044;-25
2023/12/11 00:14:41;;;;;;;3.28;1.70;;;;;;;;;;5074365;28;20438;-25
2023/12/11 00:17:09;;;;;;;4.90;1.65;;;19.20;69.90;;;;;;5074573;28;20085;-24
2023/12/11 00:19:36;;;;;;;4.80;1.60;;;;;;;;;;5054057;28;20423;-28
2023/12/11 00:22:03;;;;;;;4.35;1.60;;;;;;;;;;5054088;28;20052;-25
2023/12/11 00:24:30;;;;;;;3.55;1.40;;;19.10;69.80;;;;;;5061030;28;20047;-26
2023/12/11 00:26:58;;;;;;;3.95;1.75;;;18.80;49.30;;;;;;5074575;28;20445;-26
2023/12/11 00:29:26;;;;;;;6.15;1.70;;;;;;;;;;5073824;28;20071;-28
2023/12/11 00:31:53;;;;;;;3.47;1.70;;;17.60;55.60;;;;;;5074112;28;20044;-27
2023/12/11 00:34:20;;;;;;;4.88;1.67;;;;;;;;;;5074362;28;20079;-28
2023/12/11 00:36:47;;;;;;;2.67;1.55;;;19.10;70.20;;;;;;5073394;28;20068;-25
2023/12/11 00:39:16;;;;;;;3.88;1.63;;;18.90;62.70;;;;;;5073004;28;20105;-25
2023/12/11 00:41:44;;;;;;;3.15;1.40;;;19.00;70.00;;;;;;5073697;28;20051;-25
2023/12/11 00:44:12;;;;;;;4.93;1.80;;;18.60;69.50;;;;;;5073935;28;20048;-25
2023/12/11 00:46:39;;;;;;;4.20;1.70;;;17.80;69.10;;;;;;5073791;28;20050;-25
2023/12/11 00:49:06;;;;;;;4.68;1.73;;;;;;;;;;5073769;28;20052;-26
2023/12/11 00:51:33;;;;;;;4.88;1.90;;;;;;;;;;5073914;28;20052;-25
2023/12/11 00:54:00;;;;;;;3.55;1.60;;;;;;;;;;5062599;28;20049;-28
2023/12/11 00:56:27;;;;;;;5.82;1.55;;;18.30;61.30;;;;;;5054088;28;20499;-31
2023/12/11 00:58:54;;;;;;;6.03;2.20;;;;;;;;;;5053468;28;20052;-26
2023/12/11 01:01:23;;;;;;;6.03;2.03;;;18.60;69.60;;;;;;5053635;28;20044;-24
2023/12/11 01:03:50;;;;;;;6.20;2.03;;;18.40;69.80;;;;;;5053427;28;20111;-24
2023/12/11 01:06:17;;;;;;;5.85;1.80;;;19.60;53.60;;;;;;5053266;28;20053;-28
2023/12/11 01:08:43;;;;;;;6.07;2.30;;;18.40;69.90;;;;;;5053529;28;20060;-29
2023/12/11 01:11:11;;;;;;;6.97;2.35;;;;;;;;;;5054342;28;20048;-27
2023/12/11 01:13:38;;;;;;;4.20;1.70;;;18.90;69.80;;;;;;5054551;28;20051;-28
2023/12/11 01:16:05;;;;;;;5.22;1.98;;;19.30;59.30;;;;;;5073145;28;20493;-30
2023/12/11 01:18:34;;;;;;;5.03;1.90;;;19.10;70.30;;;;;;5072897;28;20575;-27
2023/12/11 01:21:01;;;;;;;4.78;1.65;;;;;;;;;;5073361;28;20052;-30
2023/12/11 01:23:28;;;;;;;6.18;1.95;;;18.00;64.80;;;;;;5072564;28;20053;-31
2023/12/11 01:25:55;;;;;;;7.38;2.10;;;18.60;70.10;;;;;;5073131;28;20793;-31
2023/12/11 01:28:21;;;;;;;5.50;2.10;;;18.80;68.70;;;;;;5072876;28;20055;-25
2023/12/11 01:30:48;;;;;;;4.68;1.85;;;18.20;69.60;;;;;;5072194;28;20048;-26
2023/12/11 01:33:15;;;;;;;6.00;2.10;;;18.20;54.80;;;;;;5072855;28;20421;-29
2023/12/11 01:35:44;;;;;;;4.97;2.08;;;18.60;49.30;;;;;;5073156;28;20048;-27
2023/12/11 01:38:11;;;;;;;5.68;2.22;;;19.00;70.00;;;;;;5072246;28;20053;-27
2023/12/11 01:40:38;;;;;;;6.13;2.30;;;;;;;;;;5054155;28;20040;-27
2023/12/11 01:43:14;;;;;;;4.85;1.73;;;18.50;70.20;;;;;;5072260;28;20056;-25
2023/12/11 01:45:41;;;;;;;6.28;2.20;;;18.60;70.20;;;;;;5072691;28;20045;-24
2023/12/11 01:48:09;;;;;;;5.80;2.25;;;18.40;70.10;;;;;;5072284;28;20053;-27
2023/12/11 01:50:36;;;;;;;7.47;2.25;;;;;;;;;;5072338;28;20048;-26
2023/12/11 01:53:04;;;;;;;5.82;2.35;;;18.50;49.30;;;;;;5069488;28;20048;-25
2023/12/11 01:55:32;;;;;;;6.85;2.05;;;18.10;70.00;;;;;;5052474;28;20060;-26
2023/12/11 01:57:59;;;;;;;5.38;2.05;;;17.60;69.70;;;;;;5068649;28;20052;-25
2023/12/11 02:00:26;;;;;;;6.65;2.10;;;;;;;;;;5072632;28;20049;-31
2023/12/11 02:02:53;;;;;;;7.53;2.75;;;18.50;69.80;;;;;;5072506;28;20049;-25
2023/12/11 02:05:20;;;;;;;7.45;2.40;;;;;;;;;;5072106;28;20511;-26
2023/12/11 02:07:47;;;;;;;5.72;2.45;;;18.90;70.50;;;;;;5072065;28;20045;-29
2023/12/11 02:10:16;;;;;;;7.60;2.25;;;18.50;49.40;;;;;;5067884;28;20048;-26
2023/12/11 02:12:43;;;;;;;5.95;1.95;;;19.50;63.20;;;;;;5052665;28;20053;-25
2023/12/11 02:15:10;;;;;;;8.05;2.08;;;18.70;70.40;;;;;;5052620;28;20387;-25
2023/12/11 02:17:37;;;;;;;6.40;2.20;;;18.10;66.90;;;;;;5051983;28;20049;-25
2023/12/11 02:20:05;;;;;;;4.85;2.00;;;19.20;65.30;;;;;;5051772;28;20419;-25
2023/12/11 02:22:33;;;;;;;5.00;2.22;;;;;;;;;;5052209;28;20045;-28
2023/12/11 02:25:00;;;;;;;5.80;2.13;;;18.50;70.30;;;;;;5051540;28;20059;-25
2023/12/11 02:27:29;;;;;;;8.90;2.45;;;18.00;70.00;;;;;;5053137;28;20570;-27
2023/12/11 02:29:56;;;;;;;5.68;2.15;;;18.10;69.70;;;;;;5051515;28;20060;-29
2023/12/11 02:32:23;;;;;;;5.82;2.17;;;18.70;70.00;;;;;;5052063;28;20041;-29
2023/12/11 02:34:50;;;;;;;4.65;2.00;;;18.50;70.30;;;;;;5051536;28;20491;-24
2023/12/11 02:37:17;;;;;;;6.25;2.30;;;18.40;70.00;;;;;;5063239;28;20586;-24
2023/12/11 02:39:45;;;;;;;7.13;2.05;;;18.20;69.10;;;;;;5071570;28;20067;-24
2023/12/11 02:42:12;;;;;;;4.50;1.98;;;18.30;69.90;;;;;;5071262;28;20045;-25
2023/12/11 02:44:40;;;;;;;6.30;2.45;;;18.70;70.60;;;;;;5051692;28;20585;-29
2023/12/11 02:47:08;;;;;;;5.85;2.25;;;;;;;;;;5051594;28;20406;-26
2023/12/11 02:49:34;;;;;;;5.10;1.98;;;17.90;64.60;;;;;;5051521;28;20052;-30
2023/12/11 02:52:02;;;;;;;6.60;2.30;;;;;;;;;;5051599;28;20045;-27
2023/12/11 02:54:29;;;;;;;5.43;2.20;;;18.00;69.90;;;;;;5051672;28;20060;-25
2023/12/11 02:56:56;;;;;;;6.05;2.33;;;;;;;;;;5051196;28;20049;-26
2023/12/11 02:59:23;;;;;;;6.13;2.30;;;17.80;70.20;;;;;;5051208;28;20055;-31
2023/12/11 03:01:51;;;;;;;7.10;2.10;;;18.30;49.40;;;;;;5051615;28;20049;-25
2023/12/11 03:04:18;;;;;;;5.53;2.25;;;;;;;;;;5051376;28;20048;-26
2023/12/11 03:06:45;;;;;;;6.18;2.25;;;18.00;70.00;;;;;;5051407;28;20510;-29
2023/12/11 03:09:12;;;;;;;6.20;2.05;;;;;;;;;;5051433;28;20052;-26
2023/12/11 03:11:39;;;;;;;6.93;2.30;;;17.90;70.30;;;;;;5051388;28;20049;-27
2023/12/11 03:14:06;;;;;;;6.57;2.45;;;;;;;;;;5051357;28;20521;-27
2023/12/11 03:16:33;;;;;;;4.88;2.30;;;19.30;70.70;;;;;;5051260;28;20049;-29
2023/12/11 03:19:02;;;;;;;5.03;2.13;;;18.30;49.50;;;;;;5051221;28;20071;-26
2023/12/11 03:21:28;;;;;;;6.70;2.35;;;18.80;50.30;;;;;;5051116;28;20399;-25
2023/12/11 03:23:55;;;;;;;7.47;2.20;;;18.30;61.40;;;;;;5051637;28;20048;-28
2023/12/11 03:26:23;;;;;;;4.57;2.30;;;;;;;;;;5051336;28;20072;-26
2023/12/11 03:28:49;;;;;;;5.95;2.20;;;17.90;58.70;;;;;;5051144;28;20045;-25
2023/12/11 03:31:16;;;;;;;5.93;2.03;;;18.40;70.20;;;;;;5051100;28;20045;-32
2023/12/11 03:33:43;;;;;;;5.97;2.38;;;18.10;70.10;;;;;;5050815;28;20045;-30
2023/12/11 03:36:12;;;;;;;4.25;2.00;;;17.90;61.80;;;;;;5053707;28;20049;-30
2023/12/11 03:38:38;;;;;;;7.45;2.25;;;17.60;69.90;;;;;;5071080;28;20048;-27
2023/12/11 03:41:06;;;;;;;8.35;2.67;;;;;;;;;;5070973;28;20494;-27
2023/12/11 03:43:33;;;;;;;5.90;2.63;;;;;;;;;;5071192;28;20119;-30
2023/12/11 03:46:01;;;;;;;5.93;2.30;;;17.70;70.30;;;;;;5066394;28;20048;-25
2023/12/11 03:48:28;;;;;;;5.32;2.15;;;18.30;70.20;;;;;;5050981;28;20107;-24
2023/12/11 03:50:55;;;;;;;6.95;2.28;;;;;;;;;;5050813;28;20053;-28
2023/12/11 03:53:24;;;;;;;6.93;2.28;;;18.60;70.00;;;;;;5058283;28;20047;-24
2023/12/11 03:55:52;;;;;;;6.80;2.10;;;18.20;70.50;;;;;;5074704;28;20131;-24
2023/12/11 03:58:19;;;;;;;8.40;2.30;;;18.70;70.60;;;;;;5074767;28;20049;-25
2023/12/11 04:00:46;;;;;;;5.93;2.20;;;19.20;70.70;;;;;;5074308;28;20421;-25
2023/12/11 04:03:13;;;;;;;9.05;2.30;;;18.60;61.70;;;;;;5065725;28;20053;-24
2023/12/11 04:05:40;;;;;;;5.35;2.20;;;18.60;71.20;;;;;;5054900;28;20129;-25
2023/12/11 04:08:07;;;;;;;5.20;1.95;;;18.10;70.50;;;;;;5054204;28;20410;-25
2023/12/11 04:10:35;;;;;;;5.47;2.30;;;17.20;57.60;;;;;;5054405;28;20049;-25
2023/12/11 04:13:02;;;;;;;7.72;2.42;;;17.50;67.30;;;;;;5054236;28;20067;-29
2023/12/11 04:15:29;;;;;;;5.65;2.20;;;18.40;70.50;;;;;;5054388;28;20406;-29
2023/12/11 04:17:57;;;;;;;7.32;2.33;;;;;;;;;;5053750;28;20482;-24
2023/12/11 04:20:23;;;;;;;5.80;2.17;;;18.60;61.00;;;;;;5068955;28;20052;-31
2023/12/11 04:22:50;;;;;;;6.43;2.30;;;18.70;55.10;;;;;;5074569;28;20406;-31
2023/12/11 04:25:17;;;;;;;6.15;2.45;;;18.80;70.10;;;;;;5074362;28;20052;-23
2023/12/11 04:27:46;;;;;;;8.50;2.35;;;18.40;49.30;;;;;;5074126;28;20059;-27
2023/12/11 04:30:13;;;;;;;6.25;2.42;;;17.60;50.90;;;;;;5074085;28;20060;-26
2023/12/11 04:32:41;;;;;;;6.03;2.30;;;;;;;;;;5074040;28;20417;-28
2023/12/11 04:35:08;;;;;;;6.82;2.67;;;19.60;55.80;;;;;;5073613;28;20084;-24
2023/12/11 04:37:35;;;;;;;6.78;2.38;;;18.50;63.90;;;;;;5072716;28;20056;-23
2023/12/11 04:40:03;;;;;;;6.20;2.40;;;18.40;70.30;;;;;;5073975;28;20051;-25
2023/12/11 04:42:30;;;;;;;5.25;1.90;;;18.40;70.00;;;;;;5073664;28;20063;-24
2023/12/11 04:44:58;;;;;;;5.78;2.38;;;18.00;70.10;;;;;;5074224;28;20060;-25
2023/12/11 04:47:25;;;;;;;8.35;2.65;;;;;;;;;;5073992;28;20045;-26
2023/12/11 04:49:52;;;;;;;4.28;2.08;;;17.70;69.60;;;;;;5073888;28;20071;-27
2023/12/11 04:52:19;;;;;;;6.95;2.60;;;;;;;;;;5071652;28;20049;-28
2023/12/11 04:54:46;;;;;;;4.95;2.30;;;19.10;57.70;;;;;;5070862;28;20060;-29
2023/12/11 04:57:13;;;;;;;7.78;2.53;;;;;;;;;;5073774;28;20048;-27
2023/12/11 04:59:41;;;;;;;5.15;2.20;;;17.80;69.20;;;;;;5063443;28;20068;-30
2023/12/11 05:02:09;;;;;;;6.18;2.30;;;18.20;51.30;;;;;;5053622;28;20053;-26
2023/12/11 05:04:36;;;;;;;5.70;2.30;;;;;;;;;;5051625;28;20052;-26
2023/12/11 05:07:03;;;;;;;9.25;2.60;;;;;;;;;;5052350;28;20049;-28
2023/12/11 05:09:31;;;;;;;5.97;2.40;;;;;;;;;;5052704;28;20056;-26
2023/12/11 05:11:58;;;;;;;7.72;2.28;;;;;;;;;;5051851;28;20152;-28
2023/12/11 05:14:25;;;;;;;5.90;2.15;;;;;;;;;;5052010;28;20045;-30
2023/12/11 05:16:51;;;;;;;6.65;2.50;;;18.30;66.40;;;;;;5051366;28;20076;-30
2023/12/11 05:19:20;;;;;;;6.55;2.83;;;18.40;49.30;;;;;;5051286;28;20505;-25
2023/12/11 05:21:46;;;;;;;7.38;2.40;;;19.10;70.40;;;;;;5051222;28;20609;-26
2023/12/11 05:24:14;;;;;;;4.95;2.20;;;;;;;;;;5051464;28;20045;-29
2023/12/11 05:26:41;;;;;;;5.15;2.08;;;18.60;70.50;;;;;;5053240;28;20040;-30
2023/12/11 05:29:09;;;;;;;8.75;2.60;;;19.40;70.70;;;;;;5054635;28;20056;-27
2023/12/11 05:31:37;;;;;;;6.20;2.38;;;;;;;;;;5072885;28;20052;-26
2023/12/11 05:34:03;;;;;;;6.03;2.28;;;18.70;70.40;;;;;;5073074;28;20053;-25
2023/12/11 05:36:33;;;;;;;6.38;2.10;;;18.40;49.40;;;;;;5072518;28;20521;-26
2023/12/11 05:39:00;;;;;;;7.45;2.15;;;;;;;;;;5072516;28;20049;-31
2023/12/11 05:41:27;;;;;;;6.95;2.45;;;18.40;65.70;;;;;;5073150;28;20056;-27
2023/12/11 05:43:57;;;;;;;7.00;2.47;;;18.30;70.10;;;;;;5054994;28;20057;-24
2023/12/11 05:46:24;;;;;;;5.78;2.30;;;18.30;70.10;;;;;;5053197;28;20457;-24
2023/12/11 05:48:51;;;;;;;7.18;2.40;;;;;;;;;;5052769;28;20059;-28
2023/12/11 05:51:18;;;;;;;6.00;2.58;;;18.40;70.50;;;;;;5052348;28;20053;-30
2023/12/11 05:53:47;;;;;;;6.55;2.10;;;;;;;;;;5061687;28;20051;-27
2023/12/11 05:56:14;;;;;;;5.72;2.45;;;18.80;70.70;;;;;;5060138;28;20060;-26
2023/12/11 05:58:41;;;;;;;6.05;2.15;;;;;;;;;;5057084;28;20059;-29
2023/12/11 06:01:08;;;;;;;5.22;1.90;;;18.20;69.90;;;;;;5072248;28;20048;-25
2023/12/11 06:03:35;;;;;;;6.03;2.38;;;;;;;;;;5072706;28;20402;-28
2023/12/11 06:06:02;;;;;;;5.00;1.98;;;19.50;63.80;;;;;;5072187;28;20045;-25
2023/12/11 06:08:30;;;;;;;6.82;2.47;;;;;;;;;;5072280;28;20045;-26
2023/12/11 06:10:58;;;;;;;6.68;2.33;;;18.50;49.20;;;;;;5072350;28;20073;-25
2023/12/11 06:13:25;;;;;;;5.50;2.00;;;18.90;70.10;;;;;;5062515;28;20045;-25
2023/12/11 06:15:52;;;;;;;6.22;2.38;;;19.10;49.40;;;;;;5052046;28;20053;-25
2023/12/11 06:18:19;;;;;;;7.00;2.33;;;18.20;69.60;;;;;;5052047;28;20131;-26
2023/12/11 06:20:45;;;;;;;6.53;2.15;;;18.10;69.80;;;;;;5052072;28;20052;-28
2023/12/11 06:23:12;;;;;;;6.13;2.67;;;19.40;70.60;;;;;;5052351;28;20044;-25
2023/12/11 06:25:39;;;;;;;3.97;1.70;;;18.10;69.90;;;;;;5052348;28;20049;-23
2023/12/11 06:28:08;;;;;;;6.57;2.08;;;18.60;49.10;;;;;;5052171;28;20052;-23
2023/12/11 06:30:35;;;;;;;5.65;2.45;;;17.40;65.80;;;;;;5053046;28;20045;-31
2023/12/11 06:33:01;;;;;;;4.85;2.13;;;18.90;69.90;;;;;;5051755;28;20047;-28
2023/12/11 06:35:28;;;;;;;4.47;1.98;;;18.60;56.00;;;;;;5052233;28;20049;-26
2023/12/11 06:37:55;;;;;;;5.78;2.20;;;18.90;70.10;;;;;;5068800;28;20041;-23
2023/12/11 06:40:23;;;;;;;4.47;1.75;;;;;;;;;;5071655;28;20080;-26
2023/12/11 06:42:49;;;;;;;5.25;1.98;;;18.40;69.50;;;;;;5071951;28;20048;-28
2023/12/11 06:45:18;;;;;;;6.90;2.45;;;18.70;49.00;;;;;;5071341;28;20120;-25
2023/12/11 06:47:45;;;;;;;4.70;2.00;;;18.50;57.20;;;;;;5071546;28;20056;-25
2023/12/11 06:50:12;;;;;;;4.57;1.80;;;;;;;;;;5071724;28;20401;-26
2023/12/11 06:52:39;;;;;;;4.75;1.90;;;19.10;56.40;;;;;;5057742;28;20052;-25
2023/12/11 06:55:07;;;;;;;3.58;1.88;;;17.70;69.30;;;;;;5051829;28;20490;-26
2023/12/11 06:57:34;;;;;;;6.00;2.20;;;18.40;69.30;;;;;;5051643;28;20076;-24
2023/12/11 07:00:03;;;;;;;6.95;2.17;;;;;;;;;;5051537;28;20053;-27
2023/12/11 07:02:31;;;;;;;5.43;1.98;;;19.10;69.60;;;;;;5057728;28;20051;-24
2023/12/11 07:04:58;;;;;;;5.95;2.10;;;18.80;69.40;;;;;;5071558;28;20049;-24
2023/12/11 07:07:25;;;;;;;3.97;1.83;;;;;;;;;;5072114;28;20071;-28
2023/12/11 07:09:52;;;;;;;6.47;1.88;;;19.60;69.70;;;;;;5071477;28;20055;-24
2023/12/11 07:12:19;;;;;;;4.40;1.70;;;;;;;;;;5071474;28;20052;-26
2023/12/11 07:14:47;;;;;;;5.45;2.40;;;19.60;69.70;;;;;;5071545;28;20105;-26
2023/12/11 07:17:14;;;;;;;4.50;1.80;;;20.10;69.80;;;;;;5071743;28;20063;-27
2023/12/11 07:19:43;;;;;;;4.68;1.80;;;19.00;48.60;;;;;;5069258;28;20513;-27
2023/12/11 07:22:10;;;;;;;4.88;1.80;;;;;;;;;;5071437;28;20041;-27
2023/12/11 07:24:37;;;;;;;4.38;1.77;;;20.00;69.90;;;;;;5071809;28;20063;-26
2023/12/11 07:27:04;;;;;;;3.50;1.92;;;;;;;;;;5071412;28;20414;-26
2023/12/11 07:29:31;;;;;;;4.80;2.00;;;18.00;68.50;;;;;;5074518;28;20417;-27
2023/12/11 07:31:58;;;;;;;5.72;2.08;;;19.50;59.30;;;;;;5075415;28;20060;-28
2023/12/11 07:34:25;;;;;;;5.18;2.08;;;19.20;69.10;;;;;;5075684;28;20072;-25
2023/12/11 07:36:54;;;;;;;4.45;2.03;;;18.80;48.30;;;;;;5072594;28;20058;-25
2023/12/11 07:39:21;;;;;;;4.80;2.00;;;19.10;69.30;;;;;;5074777;28;20585;-30
2023/12/11 07:41:48;;;;;;;4.45;1.90;;;20.20;52.10;;;;;;5075206;28;20048;-25
2023/12/11 07:44:15;;;;;;;3.63;1.70;;;19.50;50.00;;;;;;5075349;28;20379;-25
2023/12/11 07:46:42;;;;;;;5.68;1.98;;;;;;;;;;5075256;28;20048;-26
2023/12/11 07:49:12;;;;;;;3.70;1.80;;;20.30;69.40;;;;;;5058881;28;20056;-28
2023/12/11 07:51:39;;;;;;;4.68;2.20;;;19.90;65.70;;;;;;5056433;28;20098;-27
2023/12/11 07:54:08;;;;;;;5.90;2.05;;;19.20;48.40;;;;;;5066844;28;20111;-29
2023/12/11 07:56:36;;;;;;;4.47;1.90;;;18.40;55.80;;;;;;5065094;28;20052;-28
2023/12/11 07:59:03;;;;;;;3.90;1.80;;;19.00;68.80;;;;;;5072101;28;20048;-30
2023/12/11 08:01:31;;;;;;;4.47;1.67;;;18.90;59.80;;;;;;5063848;28;20045;-30
2023/12/11 08:03:59;;;;;;;3.50;1.52;;;20.00;66.80;;;;;;5054843;28;20049;-29
2023/12/11 08:06:26;;;;;;;5.40;2.20;;;19.20;68.90;;;;;;5054500;28;20418;-33
2023/12/11 08:08:53;;;;;;;4.78;1.95;;;;;;;;;;5055834;28;20049;-28
2023/12/11 08:11:24;;;;;;;6.13;2.05;;;19.30;48.50;;;;;;5054406;28;20041;-29
2023/12/11 08:13:51;;;;;;;4.25;1.55;;;20.10;55.60;;;;;;5060050;28;20090;-27
2023/12/11 08:16:18;;;;;;;5.20;1.70;;;19.60;66.40;;;;;;5064376;28;20402;-33
2023/12/11 08:18:46;;;;;;;4.35;1.88;;;;;;;;;;5062533;28;20064;-26
2023/12/11 08:21:14;;;;;;;5.32;2.00;;;;;;;;;;5062554;28;20056;-26
2023/12/11 08:23:42;;;;;;;3.90;1.70;;;18.30;68.30;;;;;;5061379;28;20052;-26
2023/12/11 08:26:09;;;;;;;5.65;1.75;;;19.30;69.20;;;;;;5065696;28;20509;-29
2023/12/11 08:28:37;;;;;;;4.97;1.75;;;19.70;55.30;;;;;;5074019;28;20044;-26
2023/12/11 08:31:04;;;;;;;3.95;1.80;;;19.50;65.30;;;;;;5064124;28;20047;-30
2023/12/11 08:33:31;;;;;;;4.25;1.80;;;19.90;68.80;;;;;;5074398;28;20044;-31
2023/12/11 08:35:58;;;;;;;4.13;1.80;;;19.40;63.20;;;;;;5068632;28;20425;-30
2023/12/11 08:38:25;;;;;;;7.28;1.92;;;19.80;69.10;;;;;;5057655;28;20494;-29
2023/12/11 08:40:52;;;;;;;2.78;1.45;;;;;;;;;;5059388;28;20060;-26
2023/12/11 08:43:19;;;;;;;4.57;1.77;;;19.80;49.00;;;;;;5055198;28;20358;-28
2023/12/11 08:45:47;;;;;;;5.35;2.05;;;20.10;48.50;;;;;;5063976;28;20064;-28
2023/12/11 08:48:14;;;;;;;4.55;1.50;;;20.00;57.00;;;;;;5058906;28;20053;-26
2023/12/11 08:50:41;;;;;;;3.95;1.83;;;20.10;68.40;;;;;;5052975;28;20394;-25
2023/12/11 08:53:09;;;;;;;3.97;1.60;;;;;;;;;;5057922;28;20045;-27
2023/12/11 08:55:35;;;;;;;3.03;1.50;;;21.00;68.80;;;;;;5073448;28;20076;-26
2023/12/11 08:58:03;;;;;;;3.92;1.60;;;;;;;;;;5072160;28;20056;-28
2023/12/11 09:00:30;;;;;;;4.03;1.80;;;20.10;51.60;;;;;;5072509;28;20052;-26
2023/12/11 09:02:58;;;;;;;4.28;1.60;;;20.30;48.10;;;;;;5072449;28;20044;-27
2023/12/11 09:05:25;;;;;;;3.80;1.67;;;;;;;;;;5072376;28;20044;-26
2023/12/11 09:07:52;;;;;;;7.78;1.50;;;;;;;;;;5072433;28;20056;-26
2023/12/11 09:10:19;;;;;;;4.25;1.60;;;20.30;53.20;;;;;;5072224;28;20053;-25
2023/12/11 09:12:46;;;;;;;3.75;1.77;;;20.70;68.90;;;;;;5056593;28;20075;-24
2023/12/11 09:15:13;;;;;;;3.78;1.85;;;20.40;52.10;;;;;;5053425;28;20052;-26
2023/12/11 09:17:40;;;;;;;5.35;1.65;;;20.70;68.20;;;;;;5053250;28;20059;-24
2023/12/11 09:20:09;;;;;;;3.80;1.50;;;20.50;47.90;;;;;;5053207;28;20426;-29
2023/12/11 09:22:37;;;;;;;3.70;1.40;;;21.60;68.20;;;;;;5053724;28;20084;-24
2023/12/11 09:25:04;;;;;;;3.75;1.60;;;20.90;66.20;;;;;;5053208;28;20053;-25
2023/12/11 09:27:31;;;;;;;4.10;1.75;;;;;;;;;;5053425;28;20059;-25
2023/12/11 09:29:58;;;;;;;3.58;1.63;;;;;;;;;;5052628;28;20059;-29
2023/12/11 09:32:26;;;;;;;3.75;1.58;;;;;;;;;;5053334;28;20048;-26
2023/12/11 09:34:53;;;;;;;3.17;1.40;;;20.40;67.70;;;;;;5053238;28;20049;-29
2023/12/11 09:37:21;;;;;;;5.47;1.40;;;20.80;47.80;;;;;;5065025;28;20044;-26
2023/12/11 09:39:48;;;;;;;3.45;1.70;;;20.70;67.30;;;;;;5072012;28;20060;-27
2023/12/11 09:42:16;;;;;;;3.40;1.50;;;20.50;68.00;;;;;;5053158;28;20057;-29
2023/12/11 09:44:44;;;;;;;3.63;1.50;;;21.50;68.50;;;;;;5052924;28;20464;-29
2023/12/11 09:47:12;;;;;;;3.15;1.40;;;21.00;67.60;;;;;;5053101;28;20053;-31
2023/12/11 09:49:39;;;;;;;3.00;1.48;;;21.10;67.30;;;;;;5052633;28;20056;-32
2023/12/11 09:52:06;;;;;;;3.50;1.48;;;20.70;67.10;;;;;;5052142;28;20522;-30
2023/12/11 09:54:34;;;;;;;2.53;1.30;;;20.90;67.40;;;;;;5052665;28;20052;-29
2023/12/11 09:57:02;;;;;;;3.45;1.38;;;;;;;;;;5052263;28;20053;-28
2023/12/11 09:59:30;;;;;;;3.10;1.40;;;21.90;67.50;;;;;;5052627;28;20065;-30
2023/12/11 10:01:57;;;;;;;3.00;1.48;;;21.80;66.90;;;;;;5052522;28;20052;-30
2023/12/11 10:04:25;;;;;;;2.67;1.52;;;;;;;;;;5052731;28;20049;-27
2023/12/11 10:06:52;;;;;;;3.15;1.30;;;20.80;66.70;;;;;;5052826;28;20053;-30
2023/12/11 10:09:28;;;;;;;4.10;1.30;;;;;;;;;;5052217;28;20498;-28
2023/12/11 10:12:00;;;;;;;3.15;1.20;;;21.20;65.70;;;;;;5052624;28;20053;-24
2023/12/11 10:14:28;;;;;;;3.55;1.10;;;20.90;65.90;;;;;;5052454;28;20052;-25
2023/12/11 10:16:55;;;;;;;2.28;1.30;;;21.00;63.00;;;;;;5052477;28;20053;-29
2023/12/11 10:19:31;;;;;;;1.80;0.90;;;21.30;47.40;;;;;;5052360;28;20140;-29
2023/12/11 10:21:58;;;;;;;1.90;1.10;;;21.30;67.30;;;;;;5052541;28;20103;-25
2023/12/11 10:24:25;;;;;;;2.33;1.10;;;21.30;57.00;;;;;;5052034;28;20060;-25
2023/12/11 10:26:55;;;;;;;2.85;1.38;;;21.10;66.70;;;;;;5052600;28;20048;-25
2023/12/11 10:29:25;;;;;;;1.77;1.10;;;20.60;65.30;;;;;;5051971;28;20045;-24
2023/12/11 10:31:52;;;;;;;3.63;1.60;;;20.30;66.10;;;;;;5052163;28;20080;-25
2023/12/11 10:34:19;;;;;;;2.22;1.10;;;;;;;;;;5051728;28;20045;-27
2023/12/11 10:36:50;;;;;;;1.70;1.10;;;21.10;66.80;;;;;;5052581;28;20064;-25
2023/12/11 10:39:17;;;;;;;1.90;1.00;;;21.80;67.20;;;;;;5052052;28;20130;-25
2023/12/11 10:41:45;;;;;;;1.65;1.00;;;21.80;52.10;;;;;;5052218;28;20049;-24
2023/12/11 10:44:24;;;;;;;2.30;1.27;;;21.70;66.60;;;;;;5051826;28;20045;-25
2023/12/11 10:46:53;;;;;;;2.03;1.10;;;21.20;67.20;;;;;;5052358;28;20071;-25
2023/12/11 10:49:20;;;;;;;2.95;1.27;;;;;;;;;;5060587;28;20133;-26
2023/12/11 10:51:47;;;;;;;1.83;1.00;;;21.50;66.40;;;;;;5061109;28;20060;-25
2023/12/11 10:54:14;;;;;;;3.47;1.23;;;21.70;55.20;;;;;;5061136;28;20049;-27
2023/12/11 10:56:41;;;;;;;3.28;1.13;;;22.00;67.10;;;;;;5061551;28;20053;-25
2023/12/11 10:59:08;;;;;;;2.13;1.17;;;21.90;50.20;;;;;;5061823;28;20049;-26
2023/12/11 11:01:36;;;;;;;1.83;1.00;;;21.40;67.10;;;;;;5060207;28;20095;-26
2023/12/11 11:04:03;;;;;;;1.88;1.05;;;21.00;66.90;;;;;;5061003;28;20048;-25
2023/12/11 11:06:31;;;;;;;1.83;1.10;;;;;;;;;;5061958;28;20045;-27
2023/12/11 11:09:00;;;;;;;3.25;1.10;;;21.50;47.00;;;;;;5061733;28;20098;-26
2023/12/11 11:11:31;;;;;;;2.30;1.10;;;22.60;54.30;;;;;;5061721;28;20045;-26
2023/12/11 11:14:14;;;;;;;2.28;1.20;;;21.40;46.90;;;;;;5060422;28;20433;-27
2023/12/11 11:16:53;;;;;;;1.65;1.13;;;21.40;47.00;;;;;;5060692;28;20045;-27
2023/12/11 11:19:20;;;;;;;2.25;1.10;;;21.90;66.60;;;;;;5051067;28;20041;-25
2023/12/11 11:22:17;;;;;;;2.00;1.20;;;21.10;66.80;;;;;;5047231;28;20061;-26
2023/12/11 11:24:44;;;;;;;2.88;1.20;;;22.20;66.90;;;;;;5060583;28;20045;-27
2023/12/11 11:27:42;;;;;;;2.55;1.10;;;21.30;47.10;;;;;;5057318;28;20056;-25
2023/12/11 11:30:10;;;;;;;2.15;1.00;;;21.40;47.30;;;;;;5050885;28;20136;-25
2023/12/11 11:32:54;;;;;;;2.42;1.20;;;21.00;67.40;;;;;;5054494;28;20053;-24
2023/12/11 11:35:48;;;;;;;2.00;1.10;;;21.30;47.30;;;;;;5071212;28;20091;-24
2023/12/11 11:38:15;;;;;;;2.35;1.08;;;22.10;68.10;;;;;;5070797;28;20441;-24
2023/12/11 11:40:43;;;;;;;2.22;1.23;;;;;;;;;;5071097;28;20075;-26
2023/12/11 11:43:10;;;;;;;2.38;1.10;;;21.40;60.60;;;;;;5071111;28;20053;-25
2023/12/11 11:45:37;;;;;;;2.92;1.27;;;;;;;;;;5070876;28;20490;-28
2023/12/11 11:48:06;;;;;;;3.78;1.30;;;22.30;67.50;;;;;;5071081;28;20049;-24
2023/12/11 11:50:33;;;;;;;3.40;1.30;;;20.90;67.70;;;;;;5070982;28;20048;-25
2023/12/11 11:53:02;;;;;;;2.30;1.23;;;21.50;47.60;;;;;;5060999;28;20049;-27
2023/12/11 11:55:29;;;;;;;1.98;1.17;;;21.70;67.20;;;;;;5071048;28;20052;-25
2023/12/11 11:57:56;;;;;;;2.67;1.45;;;;;;;;;;5065150;28;20048;-28
2023/12/11 12:00:23;;;;;;;4.40;1.35;;;21.20;67.00;;;;;;5061819;28;20041;-26
2023/12/11 12:02:56;;;;;;;3.38;1.08;;;21.20;47.60;;;;;;5060363;28;20141;-29
2023/12/11 12:05:26;;;;;;;2.97;1.20;;;20.80;66.80;;;;;;5059633;28;20081;-26
2023/12/11 12:07:53;;;;;;;1.77;1.00;;;20.40;66.70;;;;;;5060684;28;20049;-25
2023/12/11 12:10:20;;;;;;;3.45;1.58;;;20.60;67.90;;;;;;5061699;28;20049;-24
2023/12/11 12:12:49;;;;;;;2.78;1.27;;;21.70;61.50;;;;;;5059816;28;20057;-25
2023/12/11 12:15:17;;;;;;;3.83;1.40;;;21.40;48.20;;;;;;5063154;28;20098;-26
2023/12/11 12:17:45;;;;;;;2.95;1.23;;;20.10;67.60;;;;;;5065110;28;20158;-25
2023/12/11 12:20:13;;;;;;;2.40;1.10;;;21.10;49.40;;;;;;5064142;28;20052;-25
2023/12/11 12:22:53;;;;;;;3.17;1.30;;;20.80;48.10;;;;;;5063272;28;20102;-28
2023/12/11 12:25:22;;;;;;;2.78;1.20;;;;;;;;;;5053821;28;20048;-28
2023/12/11 12:27:49;;;;;;;2.75;1.10;;;20.90;68.80;;;;;;5054071;28;20079;-30
2023/12/11 12:30:17;;;;;;;3.13;1.45;;;20.60;67.90;;;;;;5053496;28;20041;-28
2023/12/11 12:32:43;;;;;;;3.40;1.27;;;20.30;68.60;;;;;;5053954;28;20128;-28
2023/12/11 12:35:10;;;;;;;1.92;0.98;;;21.50;69.00;;;;;;5053694;28;20044;-30
2023/12/11 12:37:37;;;;;;;3.35;1.20;;;20.20;57.50;;;;;;5053368;28;20037;-27
2023/12/11 12:40:07;;;;;;;2.47;1.17;;;20.50;48.70;;;;;;5053618;28;20051;-29
2023/12/11 12:42:34;;;;;;;2.05;1.10;;;20.40;69.20;;;;;;5053795;28;20041;-29
2023/12/11 12:45:02;;;;;;;2.70;1.10;;;;;;;;;;5053639;28;20052;-26
2023/12/11 12:47:28;;;;;;;2.03;1.13;;;21.10;69.80;;;;;;5063165;28;20051;-27
2023/12/11 12:49:56;;;;;;;2.08;1.00;;;20.90;51.50;;;;;;5062701;28;20045;-29
2023/12/11 12:52:23;;;;;;;2.17;1.10;;;20.80;69.80;;;;;;5064657;28;20044;-29
2023/12/11 12:54:50;;;;;;;3.30;1.30;;;19.20;68.10;;;;;;5060413;28;20083;-28
2023/12/11 12:57:19;;;;;;;1.90;0.95;;;20.20;49.20;;;;;;5062772;28;20056;-26
2023/12/11 12:59:46;;;;;;;2.78;1.02;;;20.20;52.60;;;;;;5064019;28;20163;-27
2023/12/11 13:02:13;;;;;;;2.08;1.05;;;21.20;69.50;;;;;;5063317;28;20044;-29
2023/12/11 13:04:49;;;;;;;2.22;1.17;;;20.00;68.90;;;;;;5059949;28;20116;-25
2023/12/11 13:07:16;;;;;;;3.78;1.00;;;21.00;53.20;;;;;;5053792;28;20080;-25
2023/12/11 13:09:43;;;;;;;2.45;1.00;;;19.30;59.80;;;;;;5053296;28;20041;-25
2023/12/11 13:12:09;;;;;;;2.10;1.00;;;19.70;69.70;;;;;;5053665;28;20110;-24
2023/12/11 13:14:38;;;;;;;2.33;1.25;;;20.40;66.10;;;;;;5053636;28;20045;-25
2023/12/11 13:17:05;;;;;;;2.55;0.90;;;20.20;65.90;;;;;;5053395;28;20052;-25